createdAt,value
2018-07-16T00:00:51.471Z,1.20
2018-07-16T00:03:20.164Z,1.37
2018-07-16T00:05:48.769Z,1.50
2018-07-16T00:08:17.448Z,1.50
2018-07-16T00:10:46.136Z,1.20
2018-07-16T00:13:14.790Z,1.20
2018-07-16T00:15:43.440Z,1.40
2018-07-16T00:18:12.125Z,1.43
2018-07-16T00:20:40.963Z,1.70
2018-07-16T00:23:09.599Z,1.50
2018-07-16T00:25:38.190Z,1.60
2018-07-16T00:28:06.979Z,1.53
2018-07-16T00:30:35.752Z,1.63
2018-07-16T00:33:04.360Z,1.33
2018-07-16T00:35:33.181Z,1.30
2018-07-16T00:38:01.744Z,1.40
2018-07-16T00:40:30.353Z,1.23
2018-07-16T00:42:59.036Z,1.23
2018-07-16T00:45:27.736Z,1.40
2018-07-16T00:47:56.459Z,1.40
2018-07-16T00:50:25.149Z,1.37
2018-07-16T00:52:53.781Z,1.37
2018-07-16T00:55:22.387Z,1.50
2018-07-16T00:57:51.122Z,1.40
2018-07-16T01:00:19.829Z,1.20
2018-07-16T01:02:48.390Z,1.20
2018-07-16T01:05:17.069Z,1.30
2018-07-16T01:07:45.762Z,1.20
2018-07-16T01:10:14.452Z,1.40
2018-07-16T01:12:43.180Z,1.30
2018-07-16T01:15:11.821Z,1.40
2018-07-16T01:17:40.487Z,1.40
2018-07-16T01:20:09.162Z,1.50
2018-07-16T01:22:37.809Z,1.37
2018-07-16T01:25:06.485Z,1.20
2018-07-16T01:27:35.177Z,1.20
2018-07-16T01:30:03.921Z,1.47
2018-07-16T01:32:33.005Z,1.10
2018-07-16T01:35:01.677Z,1.37
2018-07-16T01:37:30.630Z,1.40
2018-07-16T01:39:59.425Z,1.23
2018-07-16T01:42:28.118Z,1.27
2018-07-16T01:44:56.812Z,1.20
2018-07-16T01:47:25.439Z,1.27
2018-07-16T01:49:54.174Z,1.27
2018-07-16T01:52:22.946Z,1.13
2018-07-16T01:54:51.701Z,1.33
2018-07-16T01:57:20.380Z,1.20
2018-07-16T01:59:49.052Z,1.47
2018-07-16T02:02:17.770Z,1.50
2018-07-16T02:04:46.471Z,1.20
2018-07-16T02:07:15.185Z,1.30
2018-07-16T02:09:43.850Z,1.30
2018-07-16T02:12:12.517Z,1.30
2018-07-16T02:14:41.154Z,1.37
2018-07-16T02:17:09.739Z,1.47
2018-07-16T02:19:38.392Z,1.50
2018-07-16T02:22:07.154Z,1.30
2018-07-16T02:24:36.033Z,1.40
2018-07-16T02:27:04.654Z,1.20
2018-07-16T02:29:33.330Z,1.30
2018-07-16T02:32:02.160Z,1.33
2018-07-16T02:34:30.849Z,1.20
2018-07-16T02:36:59.423Z,1.20
2018-07-16T02:39:28.149Z,1.30
2018-07-16T02:41:56.832Z,1.40
2018-07-16T02:44:25.453Z,1.40
2018-07-16T02:46:54.084Z,1.37
2018-07-16T02:49:22.713Z,1.50
2018-07-16T02:51:51.415Z,1.20
2018-07-16T02:54:20.138Z,1.30
2018-07-16T02:56:48.830Z,1.27
2018-07-16T02:59:17.617Z,1.40
2018-07-16T03:01:46.382Z,1.50
2018-07-16T03:04:15.156Z,1.40
2018-07-16T03:06:43.877Z,1.47
2018-07-16T03:09:12.556Z,1.40
2018-07-16T03:11:41.209Z,1.23
2018-07-16T03:14:09.842Z,1.60
2018-07-16T03:16:38.724Z,1.63
2018-07-16T03:19:07.357Z,1.50
2018-07-16T03:21:36.038Z,1.50
2018-07-16T03:24:04.680Z,1.37
2018-07-16T03:26:33.414Z,1.60
2018-07-16T03:29:02.046Z,1.40
2018-07-16T03:31:30.832Z,1.30
2018-07-16T03:33:59.484Z,1.27
2018-07-16T03:36:28.136Z,1.20
2018-07-16T03:38:57.109Z,1.40
2018-07-16T03:41:25.722Z,1.57
2018-07-16T03:43:54.470Z,1.60
2018-07-16T03:46:23.179Z,1.43
2018-07-16T03:48:51.829Z,1.47
2018-07-16T03:51:20.541Z,1.37
2018-07-16T03:53:49.197Z,1.50
2018-07-16T03:56:17.808Z,1.50
2018-07-16T03:58:46.548Z,1.50
2018-07-16T04:01:15.283Z,1.50
2018-07-16T04:03:43.986Z,1.33
2018-07-16T04:06:12.605Z,1.50
2018-07-16T04:08:41.324Z,1.40
2018-07-16T04:11:10.049Z,1.43
2018-07-16T04:13:38.761Z,1.50
2018-07-16T04:16:07.386Z,1.60
2018-07-16T04:18:36.413Z,1.83
2018-07-16T04:21:05.100Z,1.70
2018-07-16T04:23:33.644Z,1.53
2018-07-16T04:26:02.370Z,1.23
2018-07-16T04:28:31.022Z,1.80
2018-07-16T04:30:59.740Z,1.60
2018-07-16T04:33:28.426Z,1.40
2018-07-16T04:35:57.110Z,1.70
2018-07-16T04:38:25.801Z,1.70
2018-07-16T04:40:54.539Z,1.57
2018-07-16T04:43:23.175Z,1.80
2018-07-16T04:45:51.886Z,1.57
2018-07-16T04:48:20.604Z,1.40
2018-07-16T04:50:49.238Z,1.50
2018-07-16T04:53:18.006Z,1.40
2018-07-16T04:55:46.749Z,1.67
2018-07-16T04:58:15.410Z,1.60
2018-07-16T05:00:44.025Z,1.37
2018-07-16T05:03:12.831Z,1.40
2018-07-16T05:05:41.571Z,1.60
2018-07-16T05:08:10.164Z,1.73
2018-07-16T05:10:38.813Z,1.37
2018-07-16T05:13:07.632Z,1.50
2018-07-16T05:15:36.256Z,1.80
2018-07-16T05:18:05.140Z,1.37
2018-07-16T05:20:33.855Z,1.60
2018-07-16T05:23:02.581Z,1.50
2018-07-16T05:25:31.402Z,1.70
2018-07-16T05:28:00.133Z,1.60
2018-07-16T05:30:28.767Z,1.40
2018-07-16T05:32:57.398Z,1.40
2018-07-16T05:35:26.109Z,1.40
2018-07-16T05:38:01.299Z,1.23
2018-07-16T05:40:30.102Z,1.30
2018-07-16T05:42:58.756Z,1.30
2018-07-16T05:45:27.433Z,1.23
2018-07-16T05:47:56.208Z,1.10
2018-07-16T05:50:24.880Z,1.33
2018-07-16T05:52:53.503Z,1.30
2018-07-16T05:55:22.284Z,1.20
2018-07-16T05:57:50.900Z,1.10
2018-07-16T06:00:19.537Z,0.90
2018-07-16T06:02:48.190Z,0.90
2018-07-16T06:05:16.940Z,1.00
2018-07-16T06:07:45.789Z,0.90
2018-07-16T06:10:14.412Z,0.90
2018-07-16T06:12:43.091Z,1.00
2018-07-16T06:15:11.822Z,0.80
2018-07-16T06:17:40.536Z,0.90
2018-07-16T06:20:10.708Z,1.00
2018-07-16T06:22:39.630Z,1.07
2018-07-16T06:25:08.787Z,1.20
2018-07-16T06:27:37.546Z,1.20
2018-07-16T06:30:06.370Z,0.90
2018-07-16T06:32:35.355Z,1.03
2018-07-16T06:35:04.211Z,0.90
2018-07-16T06:37:32.940Z,1.00
2018-07-16T06:40:01.611Z,1.10
2018-07-16T06:42:30.251Z,1.20
2018-07-16T06:44:58.932Z,1.10
2018-07-16T06:47:27.653Z,1.20
2018-07-16T06:49:56.504Z,1.20
2018-07-16T06:52:25.111Z,1.00
2018-07-16T06:54:52.701Z,1.03
2018-07-16T06:57:21.468Z,1.20
2018-07-16T06:59:50.131Z,1.07
2018-07-16T07:02:18.861Z,1.30
2018-07-16T07:04:47.549Z,1.20
2018-07-16T07:07:16.202Z,0.90
2018-07-16T07:09:44.836Z,0.90
2018-07-16T07:12:13.647Z,1.20
2018-07-16T07:14:42.379Z,1.10
2018-07-16T07:17:11.016Z,1.00
2018-07-16T07:19:39.695Z,1.20
2018-07-16T07:22:08.331Z,1.23
2018-07-16T07:24:37.172Z,1.20
2018-07-16T07:27:05.952Z,1.20
2018-07-16T07:29:34.562Z,1.20
2018-07-16T07:32:03.310Z,1.33
2018-07-16T07:34:31.959Z,1.30
2018-07-16T07:37:00.678Z,1.30
2018-07-16T07:39:29.248Z,1.13
2018-07-16T07:41:57.916Z,1.30
2018-07-16T07:44:26.527Z,1.30
2018-07-16T07:46:55.406Z,1.10
2018-07-16T07:49:24.042Z,1.20
2018-07-16T07:51:52.692Z,1.33
2018-07-16T07:54:21.644Z,1.30
2018-07-16T07:56:50.091Z,1.50
2018-07-16T07:59:18.777Z,1.17
2018-07-16T08:01:47.555Z,0.90
2018-07-16T08:04:16.276Z,1.10
2018-07-16T08:06:49.828Z,1.20
2018-07-16T08:09:18.458Z,1.30
2018-07-16T08:11:47.145Z,1.30
2018-07-16T08:14:15.859Z,1.30
2018-07-16T08:16:44.566Z,1.40
2018-07-16T08:19:13.180Z,1.13
2018-07-16T08:21:41.952Z,1.20
2018-07-16T08:24:10.674Z,1.40
2018-07-16T08:26:39.838Z,1.23
2018-07-16T08:29:08.478Z,1.10
2018-07-16T08:31:37.278Z,1.50
2018-07-16T08:34:06.220Z,1.10
2018-07-16T08:36:35.040Z,1.30
2018-07-16T08:39:04.941Z,1.20
2018-07-16T08:41:33.541Z,1.20
2018-07-16T08:44:02.436Z,1.00
2018-07-16T08:46:31.214Z,1.20
2018-07-16T08:49:00.286Z,1.17
2018-07-16T08:51:29.037Z,1.13
2018-07-16T08:53:57.866Z,1.00
2018-07-16T08:56:26.625Z,1.13
2018-07-16T08:58:55.530Z,1.10
2018-07-16T09:01:24.239Z,1.30
2018-07-16T09:03:53.166Z,1.10
2018-07-16T09:06:21.847Z,1.10
2018-07-16T09:08:50.525Z,1.10
2018-07-16T09:11:19.321Z,1.13
2018-07-16T09:13:47.964Z,1.00
2018-07-16T09:16:16.544Z,1.30
2018-07-16T09:18:45.315Z,1.10
2018-07-16T09:21:13.948Z,0.90
2018-07-16T09:23:42.565Z,1.00
2018-07-16T09:26:11.386Z,1.13
2018-07-16T09:28:40.443Z,1.00
2018-07-16T09:31:09.424Z,1.07
2018-07-16T09:33:38.237Z,1.00
2018-07-16T09:36:06.946Z,0.90
2018-07-16T09:38:35.739Z,1.10
2018-07-16T09:41:04.528Z,1.20
2018-07-16T09:43:33.212Z,1.23
2018-07-16T09:46:01.907Z,1.30
2018-07-16T09:48:30.528Z,1.20
2018-07-16T09:50:59.200Z,1.20
2018-07-16T09:53:27.870Z,1.10
2018-07-16T09:55:56.528Z,1.00
2018-07-16T09:58:25.272Z,1.10
2018-07-16T10:00:59.161Z,1.27
2018-07-16T10:03:27.911Z,1.00
2018-07-16T10:05:56.622Z,1.20
2018-07-16T10:08:25.430Z,1.30
2018-07-16T10:10:54.141Z,1.30
2018-07-16T10:13:22.926Z,1.20
2018-07-16T10:15:51.544Z,1.30
2018-07-16T10:18:20.369Z,1.17
2018-07-16T10:20:48.981Z,1.20
2018-07-16T10:23:17.617Z,1.50
2018-07-16T10:25:46.406Z,1.20
2018-07-16T10:28:15.071Z,1.30
2018-07-16T10:30:43.786Z,1.30
2018-07-16T10:33:12.576Z,1.23
2018-07-16T10:35:41.230Z,1.03
2018-07-16T10:38:10.026Z,1.27
2018-07-16T10:40:38.975Z,1.00
2018-07-16T10:43:07.670Z,1.23
2018-07-16T10:45:36.348Z,1.10
2018-07-16T10:48:06.223Z,1.30
2018-07-16T10:50:34.998Z,1.13
2018-07-16T10:53:03.617Z,1.20
2018-07-16T10:56:02.918Z,1.50
2018-07-16T10:58:31.548Z,1.13
2018-07-16T11:01:00.218Z,1.20
2018-07-16T11:03:28.956Z,1.40
2018-07-16T11:06:09.410Z,1.10
2018-07-16T11:08:38.081Z,1.13
2018-07-16T11:11:06.963Z,1.20
2018-07-16T11:13:35.541Z,1.03
2018-07-16T11:16:04.175Z,1.00
2018-07-16T11:18:32.860Z,1.27
2018-07-16T11:21:01.589Z,1.40
2018-07-16T11:23:30.227Z,1.10
2018-07-16T11:25:59.014Z,1.20
2018-07-16T11:28:27.640Z,1.07
2018-07-16T11:30:56.270Z,1.00
2018-07-16T11:33:25.184Z,1.43
2018-07-16T11:35:53.940Z,1.10
2018-07-16T11:38:22.615Z,1.10
2018-07-16T11:40:51.408Z,1.30
2018-07-16T11:43:19.995Z,1.30
2018-07-16T11:45:48.748Z,1.20
2018-07-16T11:48:17.628Z,1.57
2018-07-16T11:50:46.338Z,1.43
2018-07-16T11:53:15.001Z,1.20
2018-07-16T11:55:43.574Z,1.17
2018-07-16T11:58:12.351Z,1.10
2018-07-16T12:00:41.152Z,1.20
2018-07-16T12:03:09.957Z,1.20
2018-07-16T12:05:38.525Z,1.30
2018-07-16T12:08:07.318Z,1.20
2018-07-16T12:10:36.547Z,1.10
2018-07-16T12:13:05.207Z,1.80
2018-07-16T12:15:33.854Z,2.47
2018-07-16T12:18:02.699Z,2.07
2018-07-16T12:20:31.421Z,2.10
2018-07-16T12:22:59.963Z,2.30
2018-07-16T12:25:28.715Z,1.93
2018-07-16T12:27:57.594Z,2.00
2018-07-16T12:30:26.296Z,2.50
2018-07-16T12:32:55.255Z,1.80
2018-07-16T12:35:24.124Z,2.47
2018-07-16T12:37:52.724Z,1.97
2018-07-16T12:40:21.412Z,2.50
2018-07-16T12:42:50.120Z,1.50
2018-07-16T12:45:18.823Z,1.30
2018-07-16T12:47:47.501Z,1.20
2018-07-16T12:50:16.345Z,1.80
2018-07-16T12:52:45.040Z,1.50
2018-07-16T12:55:13.696Z,1.37
2018-07-16T12:57:42.477Z,1.20
2018-07-16T13:00:11.202Z,1.10
2018-07-16T13:02:39.861Z,1.30
2018-07-16T13:05:08.737Z,1.40
2018-07-16T13:07:37.421Z,1.43
2018-07-16T13:10:06.269Z,1.60
2018-07-16T13:12:35.095Z,1.97
2018-07-16T13:15:03.858Z,1.20
2018-07-16T13:17:32.545Z,1.40
2018-07-16T13:20:01.219Z,1.30
2018-07-16T13:22:29.812Z,1.23
2018-07-16T13:24:58.432Z,1.20
2018-07-16T13:27:27.015Z,1.37
2018-07-16T13:29:55.797Z,1.10
2018-07-16T13:32:24.561Z,1.30
2018-07-16T13:34:53.121Z,1.20
2018-07-16T13:37:21.983Z,1.10
2018-07-16T13:39:50.630Z,1.23
2018-07-16T13:42:19.357Z,1.30
2018-07-16T13:44:48.036Z,1.23
2018-07-16T13:47:16.721Z,1.30
2018-07-16T13:49:45.493Z,1.10
2018-07-16T13:52:14.098Z,1.10
2018-07-16T13:54:43.043Z,1.00
2018-07-16T13:57:11.658Z,1.10
2018-07-16T13:59:40.295Z,1.10
2018-07-16T14:02:09.173Z,1.17
2018-07-16T14:04:37.801Z,1.30
2018-07-16T14:07:06.491Z,1.20
2018-07-16T14:09:35.205Z,1.40
2018-07-16T14:12:03.911Z,1.20
2018-07-16T14:14:32.598Z,0.90
2018-07-16T14:17:01.327Z,1.00
2018-07-16T14:19:30.018Z,1.10
2018-07-16T14:21:58.706Z,1.00
2018-07-16T14:24:27.471Z,1.40
2018-07-16T14:26:56.245Z,1.10
2018-07-16T14:29:24.845Z,1.17
2018-07-16T14:31:53.437Z,1.10
2018-07-16T14:34:22.070Z,1.20
2018-07-16T14:36:50.809Z,1.30
2018-07-16T14:39:19.503Z,1.20
2018-07-16T14:41:48.129Z,1.10
2018-07-16T14:44:16.806Z,1.23
2018-07-16T14:46:45.753Z,1.03
2018-07-16T14:49:14.673Z,1.27
2018-07-16T14:51:43.353Z,1.30
2018-07-16T14:54:12.186Z,1.23
2018-07-16T14:56:41.111Z,1.53
2018-07-16T14:59:09.826Z,1.10
2018-07-16T15:01:38.557Z,2.70
2018-07-16T15:04:07.640Z,1.20
2018-07-16T15:06:36.448Z,1.40
2018-07-16T15:09:07.311Z,1.50
2018-07-16T15:11:35.924Z,1.20
2018-07-16T15:14:04.675Z,1.20
2018-07-16T15:16:33.366Z,1.30
2018-07-16T15:19:02.049Z,1.20
2018-07-16T15:21:30.950Z,1.40
2018-07-16T15:23:59.690Z,1.33
2018-07-16T15:26:28.350Z,1.20
2018-07-16T15:28:57.368Z,1.17
2018-07-16T15:31:25.960Z,1.20
2018-07-16T15:33:54.585Z,1.33
2018-07-16T15:36:23.510Z,1.17
2018-07-16T15:38:52.231Z,1.07
2018-07-16T15:41:20.917Z,1.33
2018-07-16T15:43:49.662Z,1.10
2018-07-16T15:46:18.507Z,1.03
2018-07-16T15:48:47.207Z,1.23
2018-07-16T15:51:15.760Z,1.20
2018-07-16T15:53:44.415Z,1.10
2018-07-16T15:56:13.206Z,1.03
2018-07-16T15:58:42.157Z,1.27
2018-07-16T16:01:10.875Z,0.97
2018-07-16T16:03:39.590Z,0.90
2018-07-16T16:06:08.564Z,1.00
2018-07-16T16:08:37.344Z,1.20
2018-07-16T16:11:06.503Z,1.20
2018-07-16T16:13:35.230Z,0.97
2018-07-16T16:16:04.014Z,1.10
2018-07-16T16:18:32.605Z,1.00
2018-07-16T16:21:01.260Z,1.10
2018-07-16T16:23:29.955Z,1.00
2018-07-16T16:25:58.672Z,1.00
2018-07-16T16:28:27.612Z,0.90
2018-07-16T16:30:56.243Z,1.20
2018-07-16T16:33:25.144Z,1.20
2018-07-16T16:35:53.795Z,1.20
2018-07-16T16:38:22.701Z,1.00
2018-07-16T16:40:51.367Z,1.00
2018-07-16T16:43:20.126Z,1.20
2018-07-16T16:45:48.904Z,1.03
2018-07-16T16:48:17.558Z,1.20
2018-07-16T16:50:46.499Z,0.93
2018-07-16T16:53:15.102Z,0.83
2018-07-16T16:55:43.840Z,0.90
2018-07-16T16:58:12.533Z,1.40
2018-07-16T17:00:41.180Z,1.30
2018-07-16T17:03:09.795Z,1.00
2018-07-16T17:05:38.684Z,1.30
2018-07-16T17:08:07.313Z,1.00
2018-07-16T17:10:36.026Z,0.97
2018-07-16T17:13:04.776Z,1.00
2018-07-16T17:15:33.432Z,1.00
2018-07-16T17:18:02.095Z,1.30
2018-07-16T17:20:30.731Z,1.07
2018-07-16T17:22:59.413Z,1.30
2018-07-16T17:25:28.543Z,1.23
2018-07-16T17:27:57.165Z,1.23
2018-07-16T17:30:25.877Z,1.20
2018-07-16T17:32:54.516Z,1.13
2018-07-16T17:35:23.373Z,1.23
2018-07-16T17:37:52.001Z,1.13
2018-07-16T17:40:20.598Z,1.30
2018-07-16T17:42:49.349Z,1.13
2018-07-16T17:45:17.986Z,1.10
2018-07-16T17:47:46.651Z,1.17
2018-07-16T17:50:15.388Z,1.27
2018-07-16T17:52:44.201Z,1.00
2018-07-16T17:55:12.834Z,0.90
2018-07-16T17:57:41.508Z,0.93
2018-07-16T18:00:10.435Z,1.23
2018-07-16T18:02:39.146Z,1.03
2018-07-16T18:05:07.779Z,1.20
2018-07-16T18:07:36.586Z,0.93
2018-07-16T18:10:05.697Z,1.00
2018-07-16T18:12:34.295Z,1.20
2018-07-16T18:15:03.023Z,1.03
2018-07-16T18:17:31.750Z,1.10
2018-07-16T18:20:00.411Z,1.00
2018-07-16T18:22:29.072Z,1.07
2018-07-16T18:24:57.722Z,0.90
2018-07-16T18:27:26.484Z,1.00
2018-07-16T18:29:55.156Z,0.90
2018-07-16T18:32:23.983Z,0.90
2018-07-16T18:34:52.604Z,1.13
2018-07-16T18:37:21.282Z,0.90
2018-07-16T18:39:49.999Z,1.00
2018-07-16T18:42:18.979Z,1.00
2018-07-16T18:44:48.072Z,0.90
2018-07-16T18:47:16.828Z,0.93
2018-07-16T18:49:45.501Z,1.10
2018-07-16T18:52:14.170Z,1.37
2018-07-16T18:54:42.947Z,1.10
2018-07-16T18:57:11.563Z,1.10
2018-07-16T18:59:40.229Z,1.17
2018-07-16T19:02:08.884Z,0.80
2018-07-16T19:04:37.530Z,1.13
2018-07-16T19:07:06.308Z,0.90
2018-07-16T19:09:35.410Z,1.20
2018-07-16T19:12:04.149Z,1.03
2018-07-16T19:14:32.893Z,1.10
2018-07-16T19:17:02.111Z,1.10
2018-07-16T19:19:31.183Z,1.10
2018-07-16T19:22:00.023Z,1.00
2018-07-16T19:24:28.932Z,1.20
2018-07-16T19:26:57.529Z,1.00
2018-07-16T19:29:27.234Z,0.93
2018-07-16T19:31:56.237Z,1.40
2018-07-16T19:34:24.917Z,1.20
2018-07-16T19:36:53.531Z,1.37
2018-07-16T19:39:22.317Z,1.10
2018-07-16T19:41:51.053Z,1.20
2018-07-16T19:44:19.654Z,1.50
2018-07-16T19:46:48.481Z,1.80
2018-07-16T19:49:17.163Z,2.77
2018-07-16T19:51:45.964Z,1.77
2018-07-16T19:54:14.699Z,1.33
2018-07-16T19:56:43.360Z,1.73
2018-07-16T19:59:11.958Z,1.43
2018-07-16T20:01:40.789Z,1.50
2018-07-16T20:04:09.565Z,1.30
2018-07-16T20:06:38.221Z,1.80
2018-07-16T20:09:07.412Z,1.30
2018-07-16T20:11:36.286Z,1.53
2018-07-16T20:14:04.922Z,1.50
2018-07-16T20:16:40.485Z,1.43
2018-07-16T20:19:09.296Z,1.53
2018-07-16T20:21:37.990Z,1.40
2018-07-16T20:24:06.817Z,1.60
2018-07-16T20:26:35.510Z,1.50
2018-07-16T20:29:04.321Z,1.90
2018-07-16T20:31:33.116Z,2.00
2018-07-16T20:34:01.777Z,1.40
2018-07-16T20:36:30.696Z,1.50
2018-07-16T20:38:59.336Z,1.53
2018-07-16T20:41:27.916Z,1.30
2018-07-16T20:43:56.564Z,1.50
2018-07-16T20:46:25.258Z,1.43
2018-07-16T20:48:54.241Z,1.60
2018-07-16T20:51:22.888Z,1.70
2018-07-16T20:53:52.000Z,1.60
2018-07-16T20:56:21.722Z,1.70
2018-07-16T20:58:50.451Z,1.93
2018-07-16T21:01:19.343Z,1.67
2018-07-16T21:03:47.947Z,1.70
2018-07-16T21:06:16.566Z,1.70
2018-07-16T21:08:45.322Z,3.57
2018-07-16T21:11:14.213Z,1.90
2018-07-16T21:13:42.771Z,1.60
2018-07-16T21:16:11.482Z,2.03
2018-07-16T21:18:40.162Z,1.87
2018-07-16T21:21:08.928Z,1.80
2018-07-16T21:23:37.739Z,1.90
2018-07-16T21:26:06.532Z,1.70
2018-07-16T21:28:35.239Z,1.90
2018-07-16T21:31:03.971Z,1.90
2018-07-16T21:33:32.692Z,2.27
2018-07-16T21:36:01.378Z,1.90
2018-07-16T21:38:30.034Z,2.00
2018-07-16T21:40:58.669Z,2.00
2018-07-16T21:43:27.381Z,2.20
2018-07-16T21:45:56.080Z,1.80
2018-07-16T21:48:24.798Z,1.90
2018-07-16T21:50:53.438Z,1.93
2018-07-16T21:53:22.128Z,2.00
2018-07-16T21:55:50.952Z,2.00
2018-07-16T21:58:19.621Z,2.10
2018-07-16T22:00:48.894Z,1.73
2018-07-16T22:03:17.643Z,2.00
2018-07-16T22:05:46.409Z,1.80
2018-07-16T22:08:15.015Z,1.90
2018-07-16T22:10:43.690Z,1.87
2018-07-16T22:13:12.370Z,1.80
2018-07-16T22:15:41.095Z,1.80
2018-07-16T22:18:09.807Z,2.20
2018-07-16T22:20:38.457Z,1.97
2018-07-16T22:23:07.278Z,2.03
2018-07-16T22:25:35.925Z,2.10
2018-07-16T22:28:04.578Z,2.13
2018-07-16T22:30:33.193Z,2.20
2018-07-16T22:33:01.846Z,2.10
2018-07-16T22:35:30.579Z,2.30
2018-07-16T22:37:59.326Z,2.00
2018-07-16T22:40:27.969Z,2.07
2018-07-16T22:42:56.683Z,1.90
2018-07-16T22:45:25.441Z,2.20
2018-07-16T22:47:54.361Z,2.00
2018-07-16T22:50:23.122Z,2.47
2018-07-16T22:52:51.957Z,2.20
2018-07-16T22:55:20.613Z,2.20
2018-07-16T22:57:49.185Z,2.70
2018-07-16T23:00:17.895Z,2.30
2018-07-16T23:02:46.486Z,2.23
2018-07-16T23:05:15.225Z,2.33
2018-07-16T23:07:43.991Z,2.10
2018-07-16T23:10:12.813Z,2.07
2018-07-16T23:12:41.552Z,2.20
2018-07-16T23:15:10.328Z,2.60
2018-07-16T23:17:39.010Z,2.23
2018-07-16T23:20:07.672Z,2.20
2018-07-16T23:22:48.404Z,2.10
2018-07-16T23:25:17.085Z,2.50
2018-07-16T23:27:45.806Z,2.00
2018-07-16T23:30:14.394Z,2.20
2018-07-16T23:32:43.078Z,2.30
2018-07-16T23:35:11.773Z,2.60
2018-07-16T23:37:40.547Z,2.20
2018-07-16T23:40:09.306Z,2.30
2018-07-16T23:42:37.902Z,2.30
2018-07-16T23:45:06.580Z,2.20
2018-07-16T23:47:35.365Z,2.43
2018-07-16T23:50:04.123Z,2.30
2018-07-16T23:52:32.797Z,2.30
2018-07-16T23:55:01.330Z,2.57
2018-07-16T23:57:30.271Z,2.50
2018-07-16T23:59:59.021Z,2.63
